sensor_id;sensor_type;location;lat;lon;timestamp;P1;durP1;ratioP1;P2;durP2;ratioP2
19189;SDS011;9727;50.200;19.038;2023-05-07T00:00:40;16.80;;;12.40;;
19189;SDS011;9727;50.200;19.038;2023-05-07T00:03:10;18.57;;;12.67;;
19189;SDS011;9727;50.200;19.038;2023-05-07T00:05:41;15.17;;;11.53;;
19189;SDS011;9727;50.200;19.038;2023-05-07T00:08:08;14.43;;;10.30;;
19189;SDS011;9727;50.200;19.038;2023-05-07T00:10:36;14.57;;;11.27;;
19189;SDS011;9727;50.200;19.038;2023-05-07T00:13:03;15.90;;;11.17;;
19189;SDS011;9727;50.200;19.038;2023-05-07T00:15:31;12.63;;;9.87;;
19189;SDS011;9727;50.200;19.038;2023-05-07T00:17:58;13.20;;;10.27;;
19189;SDS011;9727;50.200;19.038;2023-05-07T00:20:29;12.60;;;9.27;;
19189;SDS011;9727;50.200;19.038;2023-05-07T00:22:57;13.73;;;9.33;;
19189;SDS011;9727;50.200;19.038;2023-05-07T00:25:24;11.97;;;9.07;;
19189;SDS011;9727;50.200;19.038;2023-05-07T00:27:51;11.83;;;9.10;;
19189;SDS011;9727;50.200;19.038;2023-05-07T00:30:18;11.97;;;8.73;;
19189;SDS011;9727;50.200;19.038;2023-05-07T00:32:46;12.57;;;9.43;;
19189;SDS011;9727;50.200;19.038;2023-05-07T00:35:14;17.77;;;11.97;;
19189;SDS011;9727;50.200;19.038;2023-05-07T00:37:43;20.30;;;14.50;;
19189;SDS011;9727;50.200;19.038;2023-05-07T00:40:13;19.53;;;14.13;;
19189;SDS011;9727;50.200;19.038;2023-05-07T00:42:41;19.37;;;13.60;;
19189;SDS011;9727;50.200;19.038;2023-05-07T00:45:12;26.60;;;17.10;;
19189;SDS011;9727;50.200;19.038;2023-05-07T00:47:53;25.87;;;18.10;;
19189;SDS011;9727;50.200;19.038;2023-05-07T00:50:21;27.53;;;17.67;;
19189;SDS011;9727;50.200;19.038;2023-05-07T00:52:49;24.80;;;18.07;;
19189;SDS011;9727;50.200;19.038;2023-05-07T00:55:17;28.33;;;16.83;;
19189;SDS011;9727;50.200;19.038;2023-05-07T00:57:45;24.60;;;17.40;;
19189;SDS011;9727;50.200;19.038;2023-05-07T01:00:13;26.03;;;17.50;;
19189;SDS011;9727;50.200;19.038;2023-05-07T01:02:40;26.20;;;17.80;;
19189;SDS011;9727;50.200;19.038;2023-05-07T01:05:08;28.03;;;16.70;;
19189;SDS011;9727;50.200;19.038;2023-05-07T01:10:43;23.67;;;15.37;;
19189;SDS011;9727;50.200;19.038;2023-05-07T01:13:24;22.63;;;14.93;;
19189;SDS011;9727;50.200;19.038;2023-05-07T01:15:51;21.23;;;14.63;;
19189;SDS011;9727;50.200;19.038;2023-05-07T01:18:19;23.87;;;15.20;;
19189;SDS011;9727;50.200;19.038;2023-05-07T01:20:47;24.17;;;14.53;;
19189;SDS011;9727;50.200;19.038;2023-05-07T01:23:32;23.97;;;15.23;;
19189;SDS011;9727;50.200;19.038;2023-05-07T01:26:00;24.93;;;15.47;;
19189;SDS011;9727;50.200;19.038;2023-05-07T01:28:30;27.13;;;16.00;;
19189;SDS011;9727;50.200;19.038;2023-05-07T01:30:58;23.17;;;15.80;;
19189;SDS011;9727;50.200;19.038;2023-05-07T01:33:27;28.87;;;16.90;;
19189;SDS011;9727;50.200;19.038;2023-05-07T01:35:56;22.50;;;15.30;;
19189;SDS011;9727;50.200;19.038;2023-05-07T01:38:25;24.90;;;15.67;;
19189;SDS011;9727;50.200;19.038;2023-05-07T01:40:56;24.70;;;15.03;;
19189;SDS011;9727;50.200;19.038;2023-05-07T01:43:23;22.63;;;14.20;;
19189;SDS011;9727;50.200;19.038;2023-05-07T01:45:51;19.20;;;11.93;;
19189;SDS011;9727;50.200;19.038;2023-05-07T01:48:19;21.20;;;12.50;;
19189;SDS011;9727;50.200;19.038;2023-05-07T01:50:47;20.17;;;11.53;;
19189;SDS011;9727;50.200;19.038;2023-05-07T01:53:26;20.77;;;11.83;;
19189;SDS011;9727;50.200;19.038;2023-05-07T01:55:57;18.40;;;10.07;;
19189;SDS011;9727;50.200;19.038;2023-05-07T01:58:25;14.10;;;9.50;;
19189;SDS011;9727;50.200;19.038;2023-05-07T02:00:52;15.97;;;9.70;;
19189;SDS011;9727;50.200;19.038;2023-05-07T02:03:20;15.80;;;10.10;;
19189;SDS011;9727;50.200;19.038;2023-05-07T02:05:47;15.63;;;9.20;;
19189;SDS011;9727;50.200;19.038;2023-05-07T02:08:15;14.27;;;9.60;;
19189;SDS011;9727;50.200;19.038;2023-05-07T02:10:43;14.87;;;9.93;;
19189;SDS011;9727;50.200;19.038;2023-05-07T02:13:13;17.97;;;10.50;;
19189;SDS011;9727;50.200;19.038;2023-05-07T02:15:40;16.83;;;10.30;;
19189;SDS011;9727;50.200;19.038;2023-05-07T02:18:14;15.83;;;10.17;;
19189;SDS011;9727;50.200;19.038;2023-05-07T02:20:41;16.40;;;10.33;;
19189;SDS011;9727;50.200;19.038;2023-05-07T02:23:09;16.73;;;10.93;;
19189;SDS011;9727;50.200;19.038;2023-05-07T02:25:39;16.70;;;9.87;;
19189;SDS011;9727;50.200;19.038;2023-05-07T02:28:06;12.80;;;8.80;;
19189;SDS011;9727;50.200;19.038;2023-05-07T02:30:36;11.63;;;8.57;;
19189;SDS011;9727;50.200;19.038;2023-05-07T02:33:03;14.23;;;8.60;;
19189;SDS011;9727;50.200;19.038;2023-05-07T02:35:31;12.67;;;8.60;;
19189;SDS011;9727;50.200;19.038;2023-05-07T02:37:58;10.47;;;8.10;;
19189;SDS011;9727;50.200;19.038;2023-05-07T02:40:26;12.93;;;8.30;;
19189;SDS011;9727;50.200;19.038;2023-05-07T02:42:53;10.47;;;7.50;;
19189;SDS011;9727;50.200;19.038;2023-05-07T02:45:21;9.73;;;7.23;;
19189;SDS011;9727;50.200;19.038;2023-05-07T02:47:52;13.03;;;7.67;;
19189;SDS011;9727;50.200;19.038;2023-05-07T02:50:20;13.90;;;8.03;;
19189;SDS011;9727;50.200;19.038;2023-05-07T02:52:47;15.57;;;8.80;;
19189;SDS011;9727;50.200;19.038;2023-05-07T02:55:15;11.20;;;8.10;;
19189;SDS011;9727;50.200;19.038;2023-05-07T02:57:41;13.40;;;8.77;;
19189;SDS011;9727;50.200;19.038;2023-05-07T03:00:13;12.17;;;7.97;;
19189;SDS011;9727;50.200;19.038;2023-05-07T03:02:40;15.10;;;10.10;;
19189;SDS011;9727;50.200;19.038;2023-05-07T03:05:09;11.60;;;8.67;;
19189;SDS011;9727;50.200;19.038;2023-05-07T03:07:36;12.90;;;10.47;;
19189;SDS011;9727;50.200;19.038;2023-05-07T03:10:03;15.80;;;10.30;;
19189;SDS011;9727;50.200;19.038;2023-05-07T03:12:31;11.27;;;8.57;;
19189;SDS011;9727;50.200;19.038;2023-05-07T03:14:58;10.87;;;8.10;;
19189;SDS011;9727;50.200;19.038;2023-05-07T03:17:26;13.90;;;8.77;;
19189;SDS011;9727;50.200;19.038;2023-05-07T03:19:53;11.90;;;8.97;;
19189;SDS011;9727;50.200;19.038;2023-05-07T03:22:24;11.53;;;9.80;;
19189;SDS011;9727;50.200;19.038;2023-05-07T03:24:52;11.57;;;8.33;;
19189;SDS011;9727;50.200;19.038;2023-05-07T03:27:20;12.97;;;10.07;;
19189;SDS011;9727;50.200;19.038;2023-05-07T03:29:48;16.93;;;14.00;;
19189;SDS011;9727;50.200;19.038;2023-05-07T03:32:15;13.70;;;11.53;;
19189;SDS011;9727;50.200;19.038;2023-05-07T03:34:43;13.80;;;8.90;;
19189;SDS011;9727;50.200;19.038;2023-05-07T03:37:11;14.87;;;9.60;;
19189;SDS011;9727;50.200;19.038;2023-05-07T03:39:44;7.10;;;6.03;;
19189;SDS011;9727;50.200;19.038;2023-05-07T03:42:12;7.63;;;5.03;;
19189;SDS011;9727;50.200;19.038;2023-05-07T03:44:39;6.33;;;4.50;;
19189;SDS011;9727;50.200;19.038;2023-05-07T03:47:07;9.57;;;5.53;;
19189;SDS011;9727;50.200;19.038;2023-05-07T03:49:44;7.27;;;5.17;;
19189;SDS011;9727;50.200;19.038;2023-05-07T03:52:12;7.40;;;4.83;;
19189;SDS011;9727;50.200;19.038;2023-05-07T03:54:39;6.37;;;4.10;;
19189;SDS011;9727;50.200;19.038;2023-05-07T03:57:09;11.77;;;6.93;;
19189;SDS011;9727;50.200;19.038;2023-05-07T03:59:37;9.70;;;8.23;;
19189;SDS011;9727;50.200;19.038;2023-05-07T04:02:05;11.57;;;6.67;;
19189;SDS011;9727;50.200;19.038;2023-05-07T04:04:32;12.70;;;8.57;;
19189;SDS011;9727;50.200;19.038;2023-05-07T04:07:00;8.03;;;6.20;;
19189;SDS011;9727;50.200;19.038;2023-05-07T04:09:26;7.37;;;5.30;;
19189;SDS011;9727;50.200;19.038;2023-05-07T04:11:54;5.00;;;4.27;;
19189;SDS011;9727;50.200;19.038;2023-05-07T04:14:24;7.13;;;4.30;;
19189;SDS011;9727;50.200;19.038;2023-05-07T04:16:53;5.17;;;3.83;;
19189;SDS011;9727;50.200;19.038;2023-05-07T04:19:20;5.17;;;3.37;;
19189;SDS011;9727;50.200;19.038;2023-05-07T04:21:47;5.47;;;3.93;;
19189;SDS011;9727;50.200;19.038;2023-05-07T04:24:14;5.90;;;3.67;;
19189;SDS011;9727;50.200;19.038;2023-05-07T04:26:41;6.40;;;3.80;;
19189;SDS011;9727;50.200;19.038;2023-05-07T04:29:09;6.20;;;3.70;;
19189;SDS011;9727;50.200;19.038;2023-05-07T04:31:39;5.63;;;3.53;;
19189;SDS011;9727;50.200;19.038;2023-05-07T04:34:09;6.30;;;3.60;;
19189;SDS011;9727;50.200;19.038;2023-05-07T04:36:37;7.63;;;4.87;;
19189;SDS011;9727;50.200;19.038;2023-05-07T04:39:04;5.20;;;3.97;;
19189;SDS011;9727;50.200;19.038;2023-05-07T04:41:33;7.23;;;4.67;;
19189;SDS011;9727;50.200;19.038;2023-05-07T04:44:01;6.17;;;4.40;;
19189;SDS011;9727;50.200;19.038;2023-05-07T04:46:29;6.37;;;4.80;;
19189;SDS011;9727;50.200;19.038;2023-05-07T04:49:00;7.13;;;4.37;;
19189;SDS011;9727;50.200;19.038;2023-05-07T04:51:28;6.93;;;4.37;;
19189;SDS011;9727;50.200;19.038;2023-05-07T04:53:57;7.23;;;4.83;;
19189;SDS011;9727;50.200;19.038;2023-05-07T04:56:27;8.83;;;4.90;;
19189;SDS011;9727;50.200;19.038;2023-05-07T04:58:54;6.73;;;4.80;;
19189;SDS011;9727;50.200;19.038;2023-05-07T05:01:22;7.17;;;4.50;;
19189;SDS011;9727;50.200;19.038;2023-05-07T05:03:50;5.80;;;3.83;;
19189;SDS011;9727;50.200;19.038;2023-05-07T05:06:20;8.00;;;4.30;;
19189;SDS011;9727;50.200;19.038;2023-05-07T05:08:47;6.83;;;4.60;;
19189;SDS011;9727;50.200;19.038;2023-05-07T05:11:14;6.60;;;4.50;;
19189;SDS011;9727;50.200;19.038;2023-05-07T05:13:42;6.70;;;3.80;;
19189;SDS011;9727;50.200;19.038;2023-05-07T05:16:10;6.60;;;4.27;;
19189;SDS011;9727;50.200;19.038;2023-05-07T05:18:40;7.53;;;4.30;;
19189;SDS011;9727;50.200;19.038;2023-05-07T05:21:08;7.00;;;3.87;;
19189;SDS011;9727;50.200;19.038;2023-05-07T05:23:39;5.80;;;4.30;;
19189;SDS011;9727;50.200;19.038;2023-05-07T05:26:07;7.13;;;4.50;;
19189;SDS011;9727;50.200;19.038;2023-05-07T05:28:35;6.43;;;4.23;;
19189;SDS011;9727;50.200;19.038;2023-05-07T05:31:05;5.43;;;4.07;;
19189;SDS011;9727;50.200;19.038;2023-05-07T05:33:32;6.63;;;4.27;;
19189;SDS011;9727;50.200;19.038;2023-05-07T05:36:00;7.73;;;3.47;;
19189;SDS011;9727;50.200;19.038;2023-05-07T05:38:30;6.47;;;3.77;;
19189;SDS011;9727;50.200;19.038;2023-05-07T05:41:05;6.90;;;4.23;;
19189;SDS011;9727;50.200;19.038;2023-05-07T05:43:32;5.97;;;3.93;;
19189;SDS011;9727;50.200;19.038;2023-05-07T05:46:05;5.83;;;4.13;;
19189;SDS011;9727;50.200;19.038;2023-05-07T05:48:34;5.17;;;4.10;;
19189;SDS011;9727;50.200;19.038;2023-05-07T05:51:01;8.63;;;4.43;;
19189;SDS011;9727;50.200;19.038;2023-05-07T05:53:29;5.47;;;4.07;;
19189;SDS011;9727;50.200;19.038;2023-05-07T05:55:57;5.53;;;3.53;;
19189;SDS011;9727;50.200;19.038;2023-05-07T05:58:27;5.73;;;3.47;;
19189;SDS011;9727;50.200;19.038;2023-05-07T06:00:55;5.13;;;3.03;;
19189;SDS011;9727;50.200;19.038;2023-05-07T06:03:23;4.50;;;3.03;;
19189;SDS011;9727;50.200;19.038;2023-05-07T06:05:51;5.13;;;3.00;;
19189;SDS011;9727;50.200;19.038;2023-05-07T06:08:18;3.77;;;2.63;;
19189;SDS011;9727;50.200;19.038;2023-05-07T06:10:46;4.00;;;2.80;;
19189;SDS011;9727;50.200;19.038;2023-05-07T06:13:13;4.87;;;3.20;;
19189;SDS011;9727;50.200;19.038;2023-05-07T06:15:44;5.23;;;3.17;;
19189;SDS011;9727;50.200;19.038;2023-05-07T06:18:14;5.43;;;3.70;;
19189;SDS011;9727;50.200;19.038;2023-05-07T06:20:41;6.00;;;3.70;;
19189;SDS011;9727;50.200;19.038;2023-05-07T06:23:09;6.97;;;4.33;;
19189;SDS011;9727;50.200;19.038;2023-05-07T06:25:52;4.30;;;3.57;;
19189;SDS011;9727;50.200;19.038;2023-05-07T06:28:19;3.97;;;3.00;;
19189;SDS011;9727;50.200;19.038;2023-05-07T06:30:49;4.47;;;2.60;;
19189;SDS011;9727;50.200;19.038;2023-05-07T06:33:16;3.77;;;3.30;;
19189;SDS011;9727;50.200;19.038;2023-05-07T06:35:45;3.40;;;2.33;;
19189;SDS011;9727;50.200;19.038;2023-05-07T06:38:12;3.77;;;2.80;;
19189;SDS011;9727;50.200;19.038;2023-05-07T06:40:43;3.67;;;2.83;;
19189;SDS011;9727;50.200;19.038;2023-05-07T06:43:15;3.73;;;2.80;;
19189;SDS011;9727;50.200;19.038;2023-05-07T06:45:43;3.17;;;2.43;;
19189;SDS011;9727;50.200;19.038;2023-05-07T06:48:14;3.83;;;2.87;;
19189;SDS011;9727;50.200;19.038;2023-05-07T06:50:42;4.23;;;3.57;;
19189;SDS011;9727;50.200;19.038;2023-05-07T06:53:09;4.20;;;3.30;;
19189;SDS011;9727;50.200;19.038;2023-05-07T06:55:38;8.73;;;3.60;;
19189;SDS011;9727;50.200;19.038;2023-05-07T06:58:06;6.73;;;4.50;;
19189;SDS011;9727;50.200;19.038;2023-05-07T07:00:34;5.80;;;4.47;;
19189;SDS011;9727;50.200;19.038;2023-05-07T07:03:01;5.73;;;4.40;;
19189;SDS011;9727;50.200;19.038;2023-05-07T07:05:31;6.37;;;4.23;;
19189;SDS011;9727;50.200;19.038;2023-05-07T07:07:59;6.33;;;4.10;;
19189;SDS011;9727;50.200;19.038;2023-05-07T07:10:27;5.40;;;3.93;;
19189;SDS011;9727;50.200;19.038;2023-05-07T07:12:54;6.70;;;3.50;;
19189;SDS011;9727;50.200;19.038;2023-05-07T07:15:21;7.47;;;4.00;;
19189;SDS011;9727;50.200;19.038;2023-05-07T07:17:50;5.27;;;3.77;;
19189;SDS011;9727;50.200;19.038;2023-05-07T07:20:17;5.50;;;3.93;;
19189;SDS011;9727;50.200;19.038;2023-05-07T07:22:45;4.77;;;3.70;;
19189;SDS011;9727;50.200;19.038;2023-05-07T07:25:12;5.13;;;2.90;;
19189;SDS011;9727;50.200;19.038;2023-05-07T07:27:38;4.17;;;2.67;;
19189;SDS011;9727;50.200;19.038;2023-05-07T07:30:06;3.10;;;2.13;;
19189;SDS011;9727;50.200;19.038;2023-05-07T07:32:34;3.63;;;2.60;;
19189;SDS011;9727;50.200;19.038;2023-05-07T07:35:00;4.53;;;2.70;;
19189;SDS011;9727;50.200;19.038;2023-05-07T07:37:28;3.43;;;2.70;;
19189;SDS011;9727;50.200;19.038;2023-05-07T07:39:56;3.03;;;2.63;;
19189;SDS011;9727;50.200;19.038;2023-05-07T07:42:27;4.23;;;2.60;;
19189;SDS011;9727;50.200;19.038;2023-05-07T07:44:54;2.90;;;2.33;;
19189;SDS011;9727;50.200;19.038;2023-05-07T07:47:20;4.87;;;2.47;;
19189;SDS011;9727;50.200;19.038;2023-05-07T07:49:47;4.13;;;2.80;;
19189;SDS011;9727;50.200;19.038;2023-05-07T07:52:14;3.73;;;2.70;;
19189;SDS011;9727;50.200;19.038;2023-05-07T07:54:40;3.50;;;2.47;;
19189;SDS011;9727;50.200;19.038;2023-05-07T07:57:09;3.07;;;2.10;;
19189;SDS011;9727;50.200;19.038;2023-05-07T07:59:36;4.80;;;2.23;;
19189;SDS011;9727;50.200;19.038;2023-05-07T08:02:05;3.77;;;2.57;;
19189;SDS011;9727;50.200;19.038;2023-05-07T08:04:32;3.57;;;2.07;;
19189;SDS011;9727;50.200;19.038;2023-05-07T08:07:06;5.43;;;2.50;;
19189;SDS011;9727;50.200;19.038;2023-05-07T08:09:33;2.80;;;2.10;;
19189;SDS011;9727;50.200;19.038;2023-05-07T08:11:59;2.83;;;1.67;;
19189;SDS011;9727;50.200;19.038;2023-05-07T08:14:28;2.50;;;1.70;;
19189;SDS011;9727;50.200;19.038;2023-05-07T08:16:55;1.93;;;1.43;;
19189;SDS011;9727;50.200;19.038;2023-05-07T08:19:22;3.57;;;1.90;;
19189;SDS011;9727;50.200;19.038;2023-05-07T08:21:49;2.10;;;1.70;;
19189;SDS011;9727;50.200;19.038;2023-05-07T08:24:15;2.97;;;1.90;;
19189;SDS011;9727;50.200;19.038;2023-05-07T08:26:43;3.13;;;1.80;;
19189;SDS011;9727;50.200;19.038;2023-05-07T08:29:10;2.50;;;1.73;;
19189;SDS011;9727;50.200;19.038;2023-05-07T08:31:40;1.87;;;1.50;;
19189;SDS011;9727;50.200;19.038;2023-05-07T08:34:06;1.63;;;1.40;;
19189;SDS011;9727;50.200;19.038;2023-05-07T08:36:33;2.27;;;1.80;;
19189;SDS011;9727;50.200;19.038;2023-05-07T08:39:00;1.90;;;1.40;;
19189;SDS011;9727;50.200;19.038;2023-05-07T08:41:27;2.47;;;1.87;;
19189;SDS011;9727;50.200;19.038;2023-05-07T08:43:54;2.87;;;1.93;;
19189;SDS011;9727;50.200;19.038;2023-05-07T08:46:24;3.03;;;1.93;;
19189;SDS011;9727;50.200;19.038;2023-05-07T08:48:53;3.10;;;2.00;;
19189;SDS011;9727;50.200;19.038;2023-05-07T08:51:20;3.57;;;2.20;;
19189;SDS011;9727;50.200;19.038;2023-05-07T08:53:56;3.97;;;2.33;;
19189;SDS011;9727;50.200;19.038;2023-05-07T08:56:23;2.10;;;1.80;;
19189;SDS011;9727;50.200;19.038;2023-05-07T08:58:50;2.70;;;1.90;;
19189;SDS011;9727;50.200;19.038;2023-05-07T09:01:16;4.73;;;2.40;;
19189;SDS011;9727;50.200;19.038;2023-05-07T09:03:44;3.10;;;2.40;;
19189;SDS011;9727;50.200;19.038;2023-05-07T09:06:12;3.33;;;2.03;;
19189;SDS011;9727;50.200;19.038;2023-05-07T09:08:39;3.47;;;2.37;;
19189;SDS011;9727;50.200;19.038;2023-05-07T09:11:06;3.40;;;2.47;;
19189;SDS011;9727;50.200;19.038;2023-05-07T09:13:33;3.23;;;2.50;;
19189;SDS011;9727;50.200;19.038;2023-05-07T09:16:09;2.40;;;2.20;;
19189;SDS011;9727;50.200;19.038;2023-05-07T09:18:42;3.10;;;2.50;;
19189;SDS011;9727;50.200;19.038;2023-05-07T09:21:14;2.90;;;2.40;;
19189;SDS011;9727;50.200;19.038;2023-05-07T09:23:43;4.37;;;2.40;;
19189;SDS011;9727;50.200;19.038;2023-05-07T09:26:10;3.73;;;2.53;;
19189;SDS011;9727;50.200;19.038;2023-05-07T09:28:39;2.63;;;2.40;;
19189;SDS011;9727;50.200;19.038;2023-05-07T09:31:07;3.17;;;2.60;;
19189;SDS011;9727;50.200;19.038;2023-05-07T09:33:34;3.70;;;2.40;;
19189;SDS011;9727;50.200;19.038;2023-05-07T09:36:04;4.77;;;2.40;;
19189;SDS011;9727;50.200;19.038;2023-05-07T09:38:32;3.00;;;2.40;;
19189;SDS011;9727;50.200;19.038;2023-05-07T09:41:05;3.13;;;2.40;;
19189;SDS011;9727;50.200;19.038;2023-05-07T09:43:32;3.47;;;2.60;;
19189;SDS011;9727;50.200;19.038;2023-05-07T09:46:05;3.77;;;2.83;;
19189;SDS011;9727;50.200;19.038;2023-05-07T09:48:35;2.90;;;2.60;;
19189;SDS011;9727;50.200;19.038;2023-05-07T09:51:03;4.03;;;3.23;;
19189;SDS011;9727;50.200;19.038;2023-05-07T09:53:34;3.83;;;3.27;;
19189;SDS011;9727;50.200;19.038;2023-05-07T09:56:01;4.73;;;3.47;;
19189;SDS011;9727;50.200;19.038;2023-05-07T09:58:31;4.93;;;3.70;;
19189;SDS011;9727;50.200;19.038;2023-05-07T10:00:59;3.60;;;3.20;;
19189;SDS011;9727;50.200;19.038;2023-05-07T10:03:27;4.57;;;3.67;;
19189;SDS011;9727;50.200;19.038;2023-05-07T10:05:55;5.93;;;4.10;;
19189;SDS011;9727;50.200;19.038;2023-05-07T10:08:36;8.47;;;5.10;;
19189;SDS011;9727;50.200;19.038;2023-05-07T10:11:05;6.20;;;5.37;;
19189;SDS011;9727;50.200;19.038;2023-05-07T10:13:32;7.20;;;6.30;;
19189;SDS011;9727;50.200;19.038;2023-05-07T10:16:00;6.83;;;4.47;;
19189;SDS011;9727;50.200;19.038;2023-05-07T10:18:26;7.60;;;6.27;;
19189;SDS011;9727;50.200;19.038;2023-05-07T10:20:55;13.40;;;7.27;;
19189;SDS011;9727;50.200;19.038;2023-05-07T10:23:25;8.37;;;6.40;;
19189;SDS011;9727;50.200;19.038;2023-05-07T10:25:54;7.17;;;5.57;;
19189;SDS011;9727;50.200;19.038;2023-05-07T10:28:22;7.17;;;5.30;;
19189;SDS011;9727;50.200;19.038;2023-05-07T10:31:02;4.97;;;4.13;;
19189;SDS011;9727;50.200;19.038;2023-05-07T10:33:31;4.70;;;4.13;;
19189;SDS011;9727;50.200;19.038;2023-05-07T10:35:59;5.40;;;3.93;;
19189;SDS011;9727;50.200;19.038;2023-05-07T10:38:29;5.53;;;4.60;;
19189;SDS011;9727;50.200;19.038;2023-05-07T10:40:57;4.90;;;4.00;;
19189;SDS011;9727;50.200;19.038;2023-05-07T10:43:24;6.87;;;4.33;;
19189;SDS011;9727;50.200;19.038;2023-05-07T10:46:09;6.00;;;4.70;;
19189;SDS011;9727;50.200;19.038;2023-05-07T10:48:40;7.73;;;5.00;;
19189;SDS011;9727;50.200;19.038;2023-05-07T10:51:27;6.67;;;5.80;;
19189;SDS011;9727;50.200;19.038;2023-05-07T10:56:45;8.17;;;5.83;;
19189;SDS011;9727;50.200;19.038;2023-05-07T11:02:05;8.20;;;6.40;;
19189;SDS011;9727;50.200;19.038;2023-05-07T11:04:34;7.60;;;6.40;;
19189;SDS011;9727;50.200;19.038;2023-05-07T11:10:02;13.50;;;10.70;;
19189;SDS011;9727;50.200;19.038;2023-05-07T11:15:32;11.40;;;10.07;;
19189;SDS011;9727;50.200;19.038;2023-05-07T11:17:59;12.50;;;9.80;;
19189;SDS011;9727;50.200;19.038;2023-05-07T11:23:12;13.03;;;9.33;;
19189;SDS011;9727;50.200;19.038;2023-05-07T11:25:58;11.53;;;9.50;;
19189;SDS011;9727;50.200;19.038;2023-05-07T11:28:25;13.07;;;11.67;;
19189;SDS011;9727;50.200;19.038;2023-05-07T11:30:53;14.67;;;11.27;;
19189;SDS011;9727;50.200;19.038;2023-05-07T11:33:20;13.37;;;10.53;;
19189;SDS011;9727;50.200;19.038;2023-05-07T11:35:46;12.17;;;10.10;;
19189;SDS011;9727;50.200;19.038;2023-05-07T11:38:13;13.23;;;10.53;;
19189;SDS011;9727;50.200;19.038;2023-05-07T11:40:48;12.67;;;10.43;;
19189;SDS011;9727;50.200;19.038;2023-05-07T11:43:15;14.97;;;10.10;;
19189;SDS011;9727;50.200;19.038;2023-05-07T11:45:41;11.73;;;10.17;;
19189;SDS011;9727;50.200;19.038;2023-05-07T11:48:09;13.17;;;10.57;;
19189;SDS011;9727;50.200;19.038;2023-05-07T11:50:36;12.40;;;9.90;;
19189;SDS011;9727;50.200;19.038;2023-05-07T11:53:07;12.57;;;10.07;;
19189;SDS011;9727;50.200;19.038;2023-05-07T11:55:34;13.17;;;10.00;;
19189;SDS011;9727;50.200;19.038;2023-05-07T11:58:00;13.17;;;10.03;;
19189;SDS011;9727;50.200;19.038;2023-05-07T12:00:27;10.30;;;8.23;;
19189;SDS011;9727;50.200;19.038;2023-05-07T12:02:53;10.00;;;7.63;;
19189;SDS011;9727;50.200;19.038;2023-05-07T12:05:21;8.40;;;6.63;;
19189;SDS011;9727;50.200;19.038;2023-05-07T12:07:48;7.17;;;5.27;;
19189;SDS011;9727;50.200;19.038;2023-05-07T12:10:16;7.03;;;6.27;;
19189;SDS011;9727;50.200;19.038;2023-05-07T12:12:45;11.10;;;8.53;;
19189;SDS011;9727;50.200;19.038;2023-05-07T12:15:15;10.80;;;8.63;;
19189;SDS011;9727;50.200;19.038;2023-05-07T12:17:42;10.13;;;8.23;;
19189;SDS011;9727;50.200;19.038;2023-05-07T12:20:09;10.13;;;8.17;;
19189;SDS011;9727;50.200;19.038;2023-05-07T12:22:48;12.00;;;8.77;;
19189;SDS011;9727;50.200;19.038;2023-05-07T12:25:18;10.73;;;8.03;;
19189;SDS011;9727;50.200;19.038;2023-05-07T12:27:45;11.23;;;7.70;;
19189;SDS011;9727;50.200;19.038;2023-05-07T12:30:19;8.90;;;7.40;;
19189;SDS011;9727;50.200;19.038;2023-05-07T12:32:46;9.60;;;7.33;;
19189;SDS011;9727;50.200;19.038;2023-05-07T12:35:12;10.13;;;7.20;;
19189;SDS011;9727;50.200;19.038;2023-05-07T12:37:39;7.93;;;6.87;;
19189;SDS011;9727;50.200;19.038;2023-05-07T12:40:08;10.50;;;6.83;;
19189;SDS011;9727;50.200;19.038;2023-05-07T12:42:35;9.80;;;7.00;;
19189;SDS011;9727;50.200;19.038;2023-05-07T12:45:12;10.10;;;6.77;;
19189;SDS011;9727;50.200;19.038;2023-05-07T12:47:39;12.50;;;7.07;;
19189;SDS011;9727;50.200;19.038;2023-05-07T12:50:06;9.63;;;6.97;;
19189;SDS011;9727;50.200;19.038;2023-05-07T12:52:33;8.83;;;6.97;;
19189;SDS011;9727;50.200;19.038;2023-05-07T12:55:04;9.57;;;6.80;;
19189;SDS011;9727;50.200;19.038;2023-05-07T12:57:32;6.70;;;5.33;;
19189;SDS011;9727;50.200;19.038;2023-05-07T13:00:03;17.10;;;10.23;;
19189;SDS011;9727;50.200;19.038;2023-05-07T13:02:32;11.70;;;6.80;;
19189;SDS011;9727;50.200;19.038;2023-05-07T13:04:58;11.77;;;7.67;;
19189;SDS011;9727;50.200;19.038;2023-05-07T13:07:25;8.40;;;6.97;;
19189;SDS011;9727;50.200;19.038;2023-05-07T13:09:51;7.30;;;5.83;;
19189;SDS011;9727;50.200;19.038;2023-05-07T13:12:18;9.23;;;5.80;;
19189;SDS011;9727;50.200;19.038;2023-05-07T13:14:46;6.90;;;5.40;;
19189;SDS011;9727;50.200;19.038;2023-05-07T13:17:13;8.80;;;6.20;;
19189;SDS011;9727;50.200;19.038;2023-05-07T13:19:40;6.03;;;5.10;;
19189;SDS011;9727;50.200;19.038;2023-05-07T13:22:07;6.67;;;4.67;;
19189;SDS011;9727;50.200;19.038;2023-05-07T13:24:33;5.43;;;4.30;;
19189;SDS011;9727;50.200;19.038;2023-05-07T13:27:00;5.77;;;4.60;;
19189;SDS011;9727;50.200;19.038;2023-05-07T13:29:29;5.77;;;3.90;;
19189;SDS011;9727;50.200;19.038;2023-05-07T13:31:57;6.90;;;3.80;;
19189;SDS011;9727;50.200;19.038;2023-05-07T13:34:24;4.93;;;3.67;;
19189;SDS011;9727;50.200;19.038;2023-05-07T13:36:50;5.87;;;3.83;;
19189;SDS011;9727;50.200;19.038;2023-05-07T13:39:17;5.83;;;4.20;;
19189;SDS011;9727;50.200;19.038;2023-05-07T13:41:43;6.83;;;4.00;;
19189;SDS011;9727;50.200;19.038;2023-05-07T13:44:10;9.80;;;6.00;;
19189;SDS011;9727;50.200;19.038;2023-05-07T13:46:38;6.00;;;4.20;;
19189;SDS011;9727;50.200;19.038;2023-05-07T13:49:06;6.37;;;3.87;;
19189;SDS011;9727;50.200;19.038;2023-05-07T13:51:33;7.83;;;3.90;;
19189;SDS011;9727;50.200;19.038;2023-05-07T13:53:59;6.13;;;3.93;;
19189;SDS011;9727;50.200;19.038;2023-05-07T13:56:26;7.23;;;4.40;;
19189;SDS011;9727;50.200;19.038;2023-05-07T13:58:53;5.90;;;3.90;;
19189;SDS011;9727;50.200;19.038;2023-05-07T14:01:20;4.23;;;3.67;;
19189;SDS011;9727;50.200;19.038;2023-05-07T14:03:46;18.00;;;12.07;;
19189;SDS011;9727;50.200;19.038;2023-05-07T14:06:14;4.70;;;4.00;;
19189;SDS011;9727;50.200;19.038;2023-05-07T14:08:41;5.60;;;4.33;;
19189;SDS011;9727;50.200;19.038;2023-05-07T14:11:08;4.73;;;3.37;;
19189;SDS011;9727;50.200;19.038;2023-05-07T14:13:34;4.43;;;3.30;;
19189;SDS011;9727;50.200;19.038;2023-05-07T14:16:01;5.10;;;3.93;;
19189;SDS011;9727;50.200;19.038;2023-05-07T14:18:30;5.33;;;3.50;;
19189;SDS011;9727;50.200;19.038;2023-05-07T14:20:58;5.13;;;3.80;;
19189;SDS011;9727;50.200;19.038;2023-05-07T14:23:26;4.27;;;3.20;;
19189;SDS011;9727;50.200;19.038;2023-05-07T14:25:53;4.20;;;3.40;;
19189;SDS011;9727;50.200;19.038;2023-05-07T14:28:21;4.47;;;3.27;;
19189;SDS011;9727;50.200;19.038;2023-05-07T14:30:47;4.97;;;3.60;;
19189;SDS011;9727;50.200;19.038;2023-05-07T14:33:14;6.30;;;3.70;;
19189;SDS011;9727;50.200;19.038;2023-05-07T14:35:41;5.43;;;3.83;;
19189;SDS011;9727;50.200;19.038;2023-05-07T14:38:10;5.30;;;4.10;;
19189;SDS011;9727;50.200;19.038;2023-05-07T14:40:38;5.33;;;4.07;;
19189;SDS011;9727;50.200;19.038;2023-05-07T14:43:05;4.73;;;3.40;;
19189;SDS011;9727;50.200;19.038;2023-05-07T14:45:33;5.63;;;4.30;;
19189;SDS011;9727;50.200;19.038;2023-05-07T14:47:59;5.80;;;4.30;;
19189;SDS011;9727;50.200;19.038;2023-05-07T14:50:26;5.73;;;4.10;;
19189;SDS011;9727;50.200;19.038;2023-05-07T14:52:52;6.83;;;3.43;;
19189;SDS011;9727;50.200;19.038;2023-05-07T14:55:20;16.97;;;12.10;;
19189;SDS011;9727;50.200;19.038;2023-05-07T14:57:48;21.80;;;16.20;;
19189;SDS011;9727;50.200;19.038;2023-05-07T15:00:14;7.27;;;5.10;;
19189;SDS011;9727;50.200;19.038;2023-05-07T15:02:43;4.10;;;3.47;;
19189;SDS011;9727;50.200;19.038;2023-05-07T15:05:09;4.23;;;3.37;;